createdAt,value
2022-09-23T00:01:09.811Z,14.68
2022-09-23T00:03:38.381Z,14.63
2022-09-23T00:06:07.777Z,14.56
2022-09-23T00:08:35.126Z,14.52
2022-09-23T00:11:07.613Z,14.53
2022-09-23T00:13:40.557Z,14.43
2022-09-23T00:16:09.958Z,14.43
2022-09-23T00:18:36.699Z,14.48
2022-09-23T00:21:09.150Z,14.52
2022-09-23T00:23:35.888Z,14.48
2022-09-23T00:26:05.358Z,14.47
2022-09-23T00:28:33.098Z,14.34
2022-09-23T00:31:13.434Z,14.26
2022-09-23T00:33:40.664Z,14.35
2022-09-23T00:36:14.949Z,14.43
2022-09-23T00:38:42.208Z,14.42
2022-09-23T00:41:08.804Z,14.35
2022-09-23T00:43:59.546Z,14.46
2022-09-23T00:46:44.943Z,14.38
2022-09-23T00:49:28.605Z,14.43
2022-09-23T00:52:02.465Z,14.50
2022-09-23T00:54:29.735Z,14.50
2022-09-23T00:56:58.940Z,14.44
2022-09-23T00:59:28.734Z,14.42
2022-09-23T01:01:57.833Z,14.47
2022-09-23T01:04:26.663Z,14.41
2022-09-23T01:06:53.318Z,14.34
2022-09-23T01:09:21.531Z,14.38
2022-09-23T01:12:04.179Z,14.41
2022-09-23T01:14:42.806Z,14.50
2022-09-23T01:17:24.395Z,14.46
2022-09-23T01:20:28.540Z,14.41
2022-09-23T01:23:19.967Z,14.40
2022-09-23T01:26:14.292Z,14.34
2022-09-23T01:29:11.593Z,14.33
2022-09-23T01:31:49.565Z,14.23
2022-09-23T01:34:42.062Z,14.25
2022-09-23T01:37:11.765Z,14.25
2022-09-23T01:40:01.664Z,14.27
2022-09-23T01:42:39.360Z,14.25
2022-09-23T01:45:19.612Z,14.20
2022-09-23T01:47:54.873Z,14.22
2022-09-23T01:50:47.161Z,14.22
2022-09-23T01:53:21.297Z,14.23
2022-09-23T01:55:56.997Z,14.19
2022-09-23T01:58:54.843Z,14.19
2022-09-23T02:01:29.964Z,14.20
2022-09-23T02:04:08.717Z,14.18
2022-09-23T02:06:45.346Z,14.19
2022-09-23T02:09:16.252Z,14.23
2022-09-23T02:11:48.553Z,14.16
2022-09-23T02:14:24.540Z,14.17
2022-09-23T02:16:55.720Z,14.15
2022-09-23T02:19:35.853Z,14.14
2022-09-23T02:22:22.721Z,14.07
2022-09-23T02:24:49.497Z,13.99
2022-09-23T02:27:45.350Z,13.90
2022-09-23T02:30:16.055Z,13.81
2022-09-23T02:33:05.080Z,13.68
2022-09-23T02:36:13.136Z,13.33
2022-09-23T02:38:50.883Z,13.12
2022-09-23T02:41:27.261Z,12.92
2022-09-23T02:44:02.031Z,12.80
2022-09-23T02:46:32.518Z,12.89
2022-09-23T02:49:04.085Z,12.73
2022-09-23T02:51:35.937Z,12.84
2022-09-23T02:54:07.186Z,12.61
2022-09-23T02:56:53.390Z,12.69
2022-09-23T02:59:22.973Z,12.72
2022-09-23T03:02:07.953Z,12.70
2022-09-23T03:04:39.408Z,12.73
2022-09-23T03:07:18.861Z,12.51
2022-09-23T03:09:54.332Z,12.39
2022-09-23T03:12:36.209Z,12.43
2022-09-23T03:15:26.791Z,12.48
2022-09-23T03:18:17.309Z,12.48
2022-09-23T03:20:57.232Z,12.62
2022-09-23T03:23:31.100Z,12.70
2022-09-23T03:26:01.909Z,12.75
2022-09-23T03:28:29.090Z,12.63
2022-09-23T03:30:59.988Z,12.69
2022-09-23T03:33:29.511Z,12.60
2022-09-23T03:36:37.019Z,12.58
2022-09-23T03:39:12.674Z,12.73
2022-09-23T03:41:50.758Z,12.69
2022-09-23T03:44:19.529Z,12.57
2022-09-23T03:46:49.729Z,12.51
2022-09-23T03:49:27.200Z,12.39
2022-09-23T03:51:55.141Z,12.48
2022-09-23T03:54:21.959Z,12.41
2022-09-23T03:56:48.587Z,12.47
2022-09-23T03:59:16.069Z,12.65
2022-09-23T04:01:43.681Z,12.81
2022-09-23T04:04:10.603Z,12.85
2022-09-23T04:06:37.424Z,12.86
2022-09-23T04:09:04.196Z,12.81
2022-09-23T04:11:30.794Z,12.78
2022-09-23T04:13:57.442Z,12.72
2022-09-23T04:16:24.921Z,12.69
2022-09-23T04:18:52.068Z,12.64
2022-09-23T04:21:19.014Z,12.67
2022-09-23T04:23:46.435Z,12.63
2022-09-23T04:26:13.750Z,12.57
2022-09-23T04:28:40.387Z,12.39
2022-09-23T04:31:08.378Z,12.49
2022-09-23T04:33:34.997Z,12.53
2022-09-23T04:36:02.165Z,12.55
2022-09-23T04:38:28.692Z,12.49
2022-09-23T04:40:55.511Z,12.58
2022-09-23T04:43:23.356Z,12.52
2022-09-23T04:46:04.577Z,12.55
2022-09-23T04:48:31.700Z,12.56
2022-09-23T04:51:27.963Z,12.37
2022-09-23T04:53:55.142Z,12.40
2022-09-23T04:56:25.097Z,12.27
2022-09-23T04:58:52.599Z,12.40
2022-09-23T05:01:24.732Z,12.51
2022-09-23T05:03:53.484Z,12.55
2022-09-23T05:06:20.911Z,12.67
2022-09-23T05:08:50.040Z,12.52
2022-09-23T05:11:18.546Z,12.39
2022-09-23T05:13:49.832Z,12.37
2022-09-23T05:16:18.581Z,12.44
2022-09-23T05:18:46.130Z,12.38
2022-09-23T05:21:15.391Z,12.55
2022-09-23T05:23:46.846Z,12.56
2022-09-23T05:26:14.056Z,12.62
2022-09-23T05:28:40.570Z,12.57
2022-09-23T05:31:19.923Z,12.59
2022-09-23T05:33:49.804Z,12.46
2022-09-23T05:36:20.386Z,12.42
2022-09-23T05:38:48.546Z,12.47
2022-09-23T05:41:16.170Z,12.52
2022-09-23T05:43:43.283Z,12.55
2022-09-23T05:46:18.501Z,12.56
2022-09-23T05:48:47.199Z,12.51
2022-09-23T05:51:20.001Z,12.50
2022-09-23T05:53:47.648Z,12.42
2022-09-23T05:56:16.679Z,12.35
2022-09-23T05:58:43.711Z,12.25
2022-09-23T06:01:17.877Z,12.20
2022-09-23T06:03:49.028Z,12.18
2022-09-23T06:06:20.007Z,12.27
2022-09-23T06:08:47.413Z,12.28
2022-09-23T06:11:14.321Z,12.34
2022-09-23T06:13:41.614Z,12.41
2022-09-23T06:16:13.708Z,12.42
2022-09-23T06:18:42.249Z,12.39
2022-09-23T06:21:12.639Z,12.31
2022-09-23T06:23:41.511Z,12.33
2022-09-23T06:26:11.070Z,12.41
2022-09-23T06:28:40.501Z,12.38
2022-09-23T06:31:13.996Z,12.49
2022-09-23T06:33:42.841Z,12.61
2022-09-23T06:36:10.346Z,12.73
2022-09-23T06:38:41.744Z,12.82
2022-09-23T06:41:08.372Z,12.82
2022-09-23T06:43:34.925Z,12.82
2022-09-23T06:46:03.869Z,12.81
2022-09-23T06:48:35.098Z,12.81
2022-09-23T06:51:05.352Z,12.90
2022-09-23T06:53:32.252Z,12.98
2022-09-23T06:56:04.278Z,13.09
2022-09-23T06:58:32.818Z,13.28
2022-09-23T07:01:11.547Z,13.49
2022-09-23T07:03:38.933Z,13.58
2022-09-23T07:06:06.421Z,13.60
2022-09-23T07:08:34.560Z,13.73
2022-09-23T07:11:05.080Z,13.80
2022-09-23T07:13:33.382Z,13.83
2022-09-23T07:16:01.816Z,13.89
2022-09-23T07:18:36.492Z,14.01
2022-09-23T07:21:16.120Z,14.07
2022-09-23T07:23:44.063Z,14.09
2022-09-23T07:26:10.918Z,14.07
2022-09-23T07:28:38.357Z,14.11
2022-09-23T07:31:14.265Z,14.00
2022-09-23T07:33:44.216Z,14.09
2022-09-23T07:36:14.489Z,14.12
2022-09-23T07:38:45.156Z,14.18
2022-09-23T07:41:18.636Z,14.22
2022-09-23T07:43:46.849Z,14.27
2022-09-23T07:46:17.257Z,14.33
2022-09-23T07:48:45.621Z,14.32
2022-09-23T07:51:18.838Z,14.47
2022-09-23T07:53:50.502Z,14.45
2022-09-23T07:56:19.417Z,14.50
2022-09-23T07:58:59.863Z,14.47
2022-09-23T08:01:41.779Z,14.55
2022-09-23T08:04:12.795Z,14.52
2022-09-23T08:06:47.714Z,14.58
2022-09-23T08:09:15.911Z,14.55
2022-09-23T08:11:42.507Z,14.43
2022-09-23T08:14:14.052Z,14.62
2022-09-23T08:16:41.812Z,14.64
2022-09-23T08:19:08.747Z,14.61
2022-09-23T08:21:35.384Z,14.61
2022-09-23T08:24:02.257Z,14.83
2022-09-23T08:26:28.925Z,14.88
2022-09-23T08:28:56.412Z,14.97
2022-09-23T08:31:23.506Z,14.98
2022-09-23T08:33:58.289Z,15.00
2022-09-23T08:36:25.772Z,15.00
2022-09-23T08:38:52.450Z,15.03
2022-09-23T08:41:40.476Z,15.15
2022-09-23T08:44:16.346Z,15.23
2022-09-23T08:46:52.697Z,15.21
2022-09-23T08:49:36.505Z,15.14
2022-09-23T08:52:14.325Z,15.17
2022-09-23T08:54:41.803Z,15.10
2022-09-23T08:57:22.953Z,15.26
2022-09-23T08:59:50.171Z,15.29
2022-09-23T09:02:21.503Z,15.36
2022-09-23T09:04:56.933Z,15.39
2022-09-23T09:07:36.750Z,15.45
2022-09-23T09:10:22.394Z,15.51
2022-09-23T09:12:50.681Z,15.64
2022-09-23T09:15:29.314Z,15.70
2022-09-23T09:18:04.724Z,15.78
2022-09-23T09:20:57.339Z,15.91
2022-09-23T09:23:36.144Z,15.78
2022-09-23T09:26:04.212Z,15.87
2022-09-23T09:28:41.565Z,15.76
2022-09-23T09:31:26.405Z,15.90
2022-09-23T09:34:05.466Z,15.98
2022-09-23T09:36:36.161Z,15.84
2022-09-23T09:39:03.822Z,15.92
2022-09-23T09:41:31.455Z,15.82
2022-09-23T09:44:03.362Z,16.09
2022-09-23T09:47:04.184Z,16.10
2022-09-23T09:49:42.585Z,16.46
2022-09-23T09:52:24.269Z,16.64
2022-09-23T09:54:51.169Z,16.68
2022-09-23T09:57:35.204Z,16.63
2022-09-23T10:00:21.448Z,16.54
2022-09-23T10:02:59.231Z,16.52
2022-09-23T10:05:31.352Z,16.51
2022-09-23T10:08:23.144Z,16.42
2022-09-23T10:10:58.659Z,16.23
2022-09-23T10:13:26.422Z,16.28
2022-09-23T10:15:56.617Z,16.16
2022-09-23T10:18:31.733Z,16.18
2022-09-23T10:21:14.325Z,16.38
2022-09-23T10:23:43.859Z,16.46
2022-09-23T10:26:12.360Z,16.62
2022-09-23T10:28:55.627Z,16.62
2022-09-23T10:31:35.548Z,16.46
2022-09-23T10:34:20.686Z,16.45
2022-09-23T10:37:09.573Z,16.39
2022-09-23T10:39:54.734Z,16.47
2022-09-23T10:43:08.641Z,16.54
2022-09-23T10:45:58.557Z,16.54
2022-09-23T10:48:47.577Z,16.63
2022-09-23T10:51:22.705Z,16.77
2022-09-23T10:54:02.826Z,16.74
2022-09-23T10:56:39.837Z,16.62
2022-09-23T10:59:27.953Z,16.71
2022-09-23T11:02:23.970Z,16.84
2022-09-23T11:05:02.034Z,17.00
2022-09-23T11:07:40.452Z,17.04
2022-09-23T11:10:47.113Z,17.15
2022-09-23T11:13:52.128Z,17.20
2022-09-23T11:16:59.662Z,17.23
2022-09-23T11:19:36.081Z,17.22
2022-09-23T11:22:15.930Z,17.29
2022-09-23T11:24:50.051Z,17.32
2022-09-23T11:27:40.178Z,17.32
2022-09-23T11:30:18.095Z,17.41
2022-09-23T11:33:04.347Z,17.39
2022-09-23T11:35:41.579Z,17.46
2022-09-23T11:38:13.205Z,17.48
2022-09-23T11:40:44.043Z,17.38
2022-09-23T11:43:23.251Z,17.60
2022-09-23T11:46:03.749Z,17.36
2022-09-23T11:48:41.592Z,17.33
2022-09-23T11:51:21.388Z,17.41
2022-09-23T11:54:00.339Z,17.34
2022-09-23T11:56:36.260Z,17.40
2022-09-23T11:59:15.845Z,17.46
2022-09-23T12:01:49.779Z,17.52
2022-09-23T12:04:55.795Z,17.56
2022-09-23T12:07:30.951Z,17.71
2022-09-23T12:10:03.760Z,17.72
2022-09-23T12:12:42.055Z,17.75
2022-09-23T12:15:39.449Z,17.54
2022-09-23T12:18:24.314Z,17.48
2022-09-23T12:21:22.134Z,17.54
2022-09-23T12:24:19.312Z,17.59
2022-09-23T12:26:51.342Z,17.74
2022-09-23T12:29:18.227Z,17.94
2022-09-23T12:31:46.862Z,17.69
2022-09-23T12:34:25.014Z,17.77
2022-09-23T12:36:51.770Z,17.74
2022-09-23T12:39:31.659Z,17.73
2022-09-23T12:42:04.849Z,17.75
2022-09-23T12:44:36.525Z,17.93
2022-09-23T12:47:20.897Z,18.06
2022-09-23T12:49:49.448Z,18.02
2022-09-23T12:52:15.965Z,17.78
2022-09-23T12:54:50.191Z,17.69
2022-09-23T12:57:35.452Z,17.83
2022-09-23T13:00:14.133Z,17.78
2022-09-23T13:02:46.773Z,17.85
2022-09-23T13:05:35.012Z,17.80
2022-09-23T13:08:14.464Z,17.81
2022-09-23T13:10:52.320Z,18.01
2022-09-23T13:13:26.444Z,18.04
2022-09-23T13:15:54.863Z,18.08
2022-09-23T13:18:21.264Z,18.05
2022-09-23T13:20:52.403Z,18.05
2022-09-23T13:23:23.569Z,17.97
2022-09-23T13:25:53.182Z,17.97
2022-09-23T13:28:31.760Z,17.84
2022-09-23T13:31:02.466Z,17.94
2022-09-23T13:33:50.362Z,17.97
2022-09-23T13:36:19.331Z,17.97
2022-09-23T13:38:49.086Z,17.86
2022-09-23T13:41:22.107Z,17.95
2022-09-23T13:43:52.352Z,17.95
2022-09-23T13:46:21.218Z,18.07
2022-09-23T13:48:51.109Z,18.00
2022-09-23T13:51:30.067Z,18.08
2022-09-23T13:53:58.940Z,18.02
2022-09-23T13:56:28.216Z,17.93
2022-09-23T13:59:10.517Z,17.90
2022-09-23T14:01:37.246Z,17.98
2022-09-23T14:04:03.885Z,18.00
2022-09-23T14:06:40.893Z,18.04
2022-09-23T14:09:07.533Z,18.18
2022-09-23T14:11:35.438Z,18.35
2022-09-23T14:14:07.645Z,18.14
2022-09-23T14:16:40.408Z,18.27
2022-09-23T14:19:12.907Z,18.29
2022-09-23T14:21:40.344Z,18.26
2022-09-23T14:24:22.821Z,18.31
2022-09-23T14:26:56.502Z,18.36
2022-09-23T14:29:31.524Z,18.21
2022-09-23T14:32:05.893Z,18.20
2022-09-23T14:34:49.221Z,18.25
2022-09-23T14:37:37.401Z,18.28
2022-09-23T14:40:09.403Z,18.18
2022-09-23T14:42:42.367Z,18.10
2022-09-23T14:45:15.452Z,18.04
2022-09-23T14:47:46.251Z,18.12
2022-09-23T14:50:43.585Z,18.06
2022-09-23T14:53:22.702Z,18.17
2022-09-23T14:56:07.107Z,17.94
2022-09-23T14:59:01.867Z,17.87
2022-09-23T15:01:34.674Z,17.94
2022-09-23T15:04:22.545Z,18.05
2022-09-23T15:06:56.648Z,18.00
2022-09-23T15:09:27.401Z,18.07
2022-09-23T15:12:04.417Z,18.01
2022-09-23T15:14:38.656Z,18.12
2022-09-23T15:17:15.423Z,18.12
2022-09-23T15:19:42.284Z,18.08
2022-09-23T15:22:09.959Z,18.00
2022-09-23T15:24:36.588Z,17.99
2022-09-23T15:27:10.942Z,17.92
2022-09-23T15:29:38.554Z,17.96
2022-09-23T15:32:08.478Z,18.04
2022-09-23T15:34:35.113Z,18.01
2022-09-23T15:37:01.797Z,18.19
2022-09-23T15:39:36.014Z,18.14
2022-09-23T15:42:02.840Z,18.24
2022-09-23T15:44:29.860Z,18.01
2022-09-23T15:46:59.897Z,18.18
2022-09-23T15:49:31.619Z,18.31
2022-09-23T15:52:02.861Z,18.33
2022-09-23T15:54:30.825Z,18.25
2022-09-23T15:56:57.393Z,18.22
2022-09-23T15:59:24.132Z,18.19
2022-09-23T16:01:52.364Z,18.25
2022-09-23T16:04:19.228Z,18.29
2022-09-23T16:06:48.206Z,18.28
2022-09-23T16:09:15.959Z,18.31
2022-09-23T16:11:46.191Z,18.31
2022-09-23T16:14:15.469Z,18.27
2022-09-23T16:16:44.850Z,18.24
2022-09-23T16:19:12.291Z,18.16
2022-09-23T16:21:40.840Z,17.96
2022-09-23T16:24:18.588Z,17.95
2022-09-23T16:26:47.370Z,18.01
2022-09-23T16:29:14.123Z,18.12
2022-09-23T16:31:41.031Z,18.10
2022-09-23T16:34:07.893Z,18.05
2022-09-23T16:36:38.129Z,18.00
2022-09-23T16:39:07.681Z,17.88
2022-09-23T16:41:34.446Z,17.84
2022-09-23T16:44:05.305Z,17.89
2022-09-23T16:46:32.079Z,17.99
2022-09-23T16:48:59.031Z,17.97
2022-09-23T16:51:30.909Z,17.94
2022-09-23T16:53:58.713Z,17.85
2022-09-23T16:56:29.092Z,17.78
2022-09-23T16:58:56.389Z,17.70
2022-09-23T17:01:44.448Z,17.57
2022-09-23T17:04:12.115Z,17.32
2022-09-23T17:06:49.998Z,17.33
2022-09-23T17:09:18.716Z,17.36
2022-09-23T17:11:48.945Z,17.40
2022-09-23T17:14:15.943Z,17.30
2022-09-23T17:16:43.295Z,17.18
2022-09-23T17:19:11.621Z,17.15
2022-09-23T17:21:38.708Z,17.06
2022-09-23T17:24:05.788Z,17.08
2022-09-23T17:26:32.823Z,17.06
2022-09-23T17:29:01.330Z,17.03
2022-09-23T17:31:28.228Z,16.91
2022-09-23T17:33:55.060Z,16.88
2022-09-23T17:36:21.962Z,16.81
2022-09-23T17:38:53.264Z,16.73
2022-09-23T17:41:20.860Z,16.76
2022-09-23T17:43:47.651Z,16.76
2022-09-23T17:46:18.590Z,16.79
2022-09-23T17:48:46.564Z,16.69
2022-09-23T17:51:16.122Z,16.68
2022-09-23T17:53:45.375Z,16.49
2022-09-23T17:56:21.095Z,16.53
2022-09-23T17:58:49.289Z,16.62
2022-09-23T18:01:21.820Z,16.65
2022-09-23T18:04:00.018Z,16.67
2022-09-23T18:06:31.254Z,16.66
2022-09-23T18:09:01.144Z,16.64
2022-09-23T18:11:29.408Z,16.58
2022-09-23T18:14:04.747Z,16.61
2022-09-23T18:16:34.303Z,16.54
2022-09-23T18:19:02.165Z,16.47
2022-09-23T18:21:32.512Z,16.53
2022-09-23T18:24:28.112Z,16.55
2022-09-23T18:26:47.525Z,16.56
2022-09-23T18:29:15.738Z,16.52
2022-09-23T18:31:44.259Z,16.52
2022-09-23T18:34:13.184Z,16.53
2022-09-23T18:36:40.148Z,16.44
2022-09-23T18:39:06.858Z,16.47
2022-09-23T18:41:33.871Z,16.48
2022-09-23T18:44:00.890Z,16.48
2022-09-23T18:46:31.962Z,16.49
2022-09-23T18:49:17.643Z,16.43
2022-09-23T18:51:56.075Z,16.48
2022-09-23T18:54:27.695Z,16.47
2022-09-23T18:56:55.216Z,16.43
2022-09-23T18:59:25.125Z,16.43
2022-09-23T19:01:54.757Z,16.45
2022-09-23T19:04:23.364Z,16.42
2022-09-23T19:06:50.173Z,16.44
2022-09-23T19:09:17.405Z,16.46
2022-09-23T19:11:44.258Z,16.46
2022-09-23T19:14:11.723Z,16.47
2022-09-23T19:16:39.838Z,16.55
2022-09-23T19:19:06.840Z,16.21
2022-09-23T19:21:34.308Z,16.11
2022-09-23T19:24:04.273Z,16.24
2022-09-23T19:26:36.613Z,16.35
2022-09-23T19:29:05.453Z,16.38
2022-09-23T19:31:40.798Z,16.39
2022-09-23T19:34:28.820Z,16.38
2022-09-23T19:36:57.506Z,16.33
2022-09-23T19:39:26.988Z,16.35
2022-09-23T19:41:55.653Z,16.15
2022-09-23T19:44:24.181Z,16.07
2022-09-23T19:46:55.960Z,16.17
2022-09-23T19:49:24.449Z,16.16
2022-09-23T19:51:51.211Z,16.28
2022-09-23T19:54:20.952Z,16.27
2022-09-23T19:56:50.005Z,16.14
2022-09-23T19:59:19.060Z,15.99
2022-09-23T20:01:48.083Z,16.09
2022-09-23T20:04:15.679Z,16.16
2022-09-23T20:06:42.543Z,16.07
2022-09-23T20:09:09.155Z,15.98
2022-09-23T20:11:35.861Z,15.95
2022-09-23T20:14:04.801Z,15.94
2022-09-23T20:16:33.955Z,15.94
2022-09-23T20:19:01.768Z,16.02
2022-09-23T20:21:29.452Z,16.20
2022-09-23T20:23:57.578Z,16.25
2022-09-23T20:26:42.851Z,16.17
2022-09-23T20:29:10.607Z,16.15
2022-09-23T20:31:41.289Z,16.10
2022-09-23T20:34:10.486Z,15.91
2022-09-23T20:36:38.512Z,15.81
2022-09-23T20:39:05.971Z,15.87
2022-09-23T20:41:36.616Z,16.01
2022-09-23T20:44:06.098Z,16.01
2022-09-23T20:46:32.901Z,16.06
2022-09-23T20:48:59.657Z,15.84
2022-09-23T20:51:26.392Z,15.81
2022-09-23T20:53:53.169Z,15.96
2022-09-23T20:56:20.820Z,16.08
2022-09-23T20:58:48.507Z,16.00
2022-09-23T21:01:15.591Z,16.02
2022-09-23T21:03:45.235Z,16.03
2022-09-23T21:06:16.431Z,16.09
2022-09-23T21:08:44.303Z,16.08
2022-09-23T21:11:16.008Z,16.08
2022-09-23T21:13:50.266Z,16.04
2022-09-23T21:16:19.136Z,16.06
2022-09-23T21:18:46.713Z,16.01
2022-09-23T21:21:19.208Z,15.85
2022-09-23T21:23:47.291Z,15.89
2022-09-23T21:26:24.758Z,15.95
2022-09-23T21:28:54.601Z,16.06
2022-09-23T21:31:25.343Z,16.03
2022-09-23T21:33:55.868Z,16.03
2022-09-23T21:36:27.260Z,16.02
2022-09-23T21:38:55.577Z,16.02
2022-09-23T21:41:22.212Z,16.00
2022-09-23T21:43:49.551Z,15.98
2022-09-23T21:46:20.813Z,16.01
2022-09-23T21:48:52.730Z,16.12
2022-09-23T21:51:25.487Z,16.10
2022-09-23T21:53:54.499Z,16.04
2022-09-23T21:56:26.100Z,16.08
2022-09-23T21:58:54.046Z,16.08
2022-09-23T22:01:26.639Z,16.10
2022-09-23T22:04:08.236Z,15.80
2022-09-23T22:06:37.376Z,15.78
2022-09-23T22:09:10.416Z,15.79
2022-09-23T22:11:57.049Z,15.82
2022-09-23T22:14:25.893Z,15.82
2022-09-23T22:16:59.120Z,15.78
2022-09-23T22:19:28.110Z,15.79
2022-09-23T22:21:56.164Z,15.80
2022-09-23T22:24:22.884Z,15.79
2022-09-23T22:26:49.733Z,15.57
2022-09-23T22:29:35.436Z,15.31
2022-09-23T22:32:23.234Z,15.50
2022-09-23T22:34:51.941Z,15.40
2022-09-23T22:37:21.789Z,15.59
2022-09-23T22:39:48.623Z,15.71
2022-09-23T22:42:15.408Z,15.82
2022-09-23T22:44:42.192Z,15.80
2022-09-23T22:47:10.027Z,15.78
2022-09-23T22:49:36.911Z,15.72
2022-09-23T22:52:09.083Z,15.65
2022-09-23T22:54:36.318Z,15.64
2022-09-23T22:57:07.540Z,15.74
2022-09-23T22:59:34.712Z,15.84
2022-09-23T23:02:02.739Z,15.87
2022-09-23T23:04:30.222Z,15.92
2022-09-23T23:06:58.586Z,15.99
2022-09-23T23:09:25.345Z,15.96
2022-09-23T23:11:51.930Z,15.92
2022-09-23T23:14:18.887Z,15.92
2022-09-23T23:16:46.031Z,15.91
2022-09-23T23:19:16.426Z,15.92
2022-09-23T23:21:44.257Z,15.95
2022-09-23T23:24:16.226Z,15.83
2022-09-23T23:26:43.507Z,15.88
2022-09-23T23:29:15.326Z,15.49
2022-09-23T23:31:42.687Z,15.29
2022-09-23T23:34:14.817Z,15.30
2022-09-23T23:36:43.481Z,15.21
2022-09-23T23:39:10.731Z,15.33
2022-09-23T23:41:39.091Z,15.40
2022-09-23T23:44:05.896Z,15.46
2022-09-23T23:46:32.945Z,15.44
2022-09-23T23:49:00.334Z,15.53
2022-09-23T23:51:27.899Z,15.43
2022-09-23T23:53:55.141Z,15.31
2022-09-23T23:56:24.250Z,15.30
2022-09-23T23:58:59.153Z,15.48
